createdAt,value
2023-05-18T00:04:50.368Z,101711.59
2023-05-18T00:09:53.194Z,101716.03
2023-05-18T00:14:57.336Z,101702.44
2023-05-18T00:20:00.914Z,101709.75
2023-05-18T00:25:03.756Z,101707.44
2023-05-18T00:30:09.436Z,101695.91
2023-05-18T00:35:12.322Z,101700.81
2023-05-18T00:40:15.100Z,101705.19
2023-05-18T00:45:20.008Z,101699.59
2023-05-18T00:50:22.831Z,101708.22
2023-05-18T00:55:27.878Z,101698.63
2023-05-18T01:00:33.804Z,101697.53
2023-05-18T01:05:36.690Z,101694.53
2023-05-18T01:10:40.939Z,101695.72
2023-05-18T01:15:45.898Z,101695.78
2023-05-18T01:20:50.702Z,101692.56
2023-05-18T01:26:06.948Z,101698.13
2023-05-18T01:31:10.828Z,101701.03
2023-05-18T01:36:13.664Z,101695.38
2023-05-18T01:41:22.682Z,101691.63
2023-05-18T01:46:36.864Z,101696.91
2023-05-18T01:51:47.262Z,101685.44
2023-05-18T01:56:53.886Z,101693.28
2023-05-18T02:02:00.471Z,101688.75
2023-05-18T02:07:04.315Z,101696.88
2023-05-18T02:12:09.174Z,101690.50
2023-05-18T02:17:12.110Z,101702.34
2023-05-18T02:22:15.054Z,101695.84
2023-05-18T02:27:19.143Z,101691.59
2023-05-18T02:32:23.855Z,101699.56
2023-05-18T02:37:28.089Z,101695.63
2023-05-18T02:42:32.362Z,101690.97
2023-05-18T02:47:36.046Z,101699.03
2023-05-18T02:52:39.227Z,101717.38
2023-05-18T02:57:46.931Z,101704.31
2023-05-18T03:02:51.403Z,101707.53
2023-05-18T03:07:54.361Z,101709.72
2023-05-18T03:12:59.403Z,101715.88
2023-05-18T03:18:02.341Z,101710.63
2023-05-18T03:23:05.846Z,101723.13
2023-05-18T03:28:11.441Z,101733.53
2023-05-18T03:33:15.656Z,101732.16
2023-05-18T03:38:18.725Z,101736.47
2023-05-18T03:43:29.621Z,101737.47
2023-05-18T03:48:32.796Z,101741.47
2023-05-18T03:53:36.234Z,101740.44
2023-05-18T03:58:42.365Z,101743.53
2023-05-18T04:03:45.415Z,101749.81
2023-05-18T04:08:48.528Z,101748.38
2023-05-18T04:13:52.682Z,101750.59
2023-05-18T04:18:55.548Z,101758.41
2023-05-18T04:24:02.905Z,101757.34
2023-05-18T04:29:07.697Z,101766.59
2023-05-18T04:34:13.217Z,101766.00
2023-05-18T04:39:18.158Z,101770.84
2023-05-18T04:44:22.527Z,101769.63
2023-05-18T04:49:26.145Z,101769.88
2023-05-18T04:54:30.823Z,101769.78
2023-05-18T04:59:37.129Z,101769.88
2023-05-18T05:04:41.260Z,101787.91
2023-05-18T05:09:44.573Z,101797.47
2023-05-18T05:14:50.033Z,101793.25
2023-05-18T05:19:55.893Z,101802.63
2023-05-18T05:24:59.002Z,101799.84
2023-05-18T05:30:03.293Z,101819.16
2023-05-18T05:35:09.034Z,101829.41
2023-05-18T05:40:13.218Z,101841.88
2023-05-18T05:45:21.182Z,101848.38
2023-05-18T05:50:28.630Z,101853.78
2023-05-18T05:55:41.026Z,101851.66
2023-05-18T06:00:49.372Z,101863.34
2023-05-18T06:05:52.269Z,101857.38
2023-05-18T06:10:57.510Z,101850.34
2023-05-18T06:16:02.469Z,101857.75
2023-05-18T06:21:05.367Z,101863.59
2023-05-18T06:26:08.794Z,101874.53
2023-05-18T06:31:18.896Z,101874.09
2023-05-18T06:36:44.989Z,101876.72
2023-05-18T06:41:47.772Z,101874.66
2023-05-18T06:46:59.184Z,101878.22
2023-05-18T06:52:04.997Z,101873.59
2023-05-18T06:57:08.696Z,101873.75
2023-05-18T07:02:13.215Z,101868.88
2023-05-18T07:07:16.719Z,101869.41
2023-05-18T07:12:19.484Z,101865.59
2023-05-18T07:17:23.794Z,101854.97
2023-05-18T07:22:26.556Z,101854.06
2023-05-18T07:27:29.476Z,101858.59
2023-05-18T07:32:33.621Z,101843.53
2023-05-18T07:37:36.768Z,101856.66
2023-05-18T07:42:40.858Z,101834.06
2023-05-18T07:47:44.983Z,101841.97
2023-05-18T07:52:47.794Z,101841.72
2023-05-18T07:57:50.904Z,101832.22
2023-05-18T08:02:55.137Z,101831.63
2023-05-18T08:07:57.966Z,101824.13
2023-05-18T08:13:00.691Z,101822.25
2023-05-18T08:18:04.923Z,101800.16
2023-05-18T08:23:07.768Z,101797.19
2023-05-18T08:28:10.694Z,101797.47
2023-05-18T08:33:14.805Z,101782.81
2023-05-18T08:38:17.797Z,101780.78
2023-05-18T08:43:23.100Z,101780.75
2023-05-18T08:48:29.233Z,101763.69
2023-05-18T08:53:33.687Z,101766.31
2023-05-18T08:58:37.636Z,101762.78
2023-05-18T09:03:41.954Z,101756.41
2023-05-18T09:08:45.468Z,101753.03
2023-05-18T09:13:49.742Z,101759.19
2023-05-18T09:18:53.971Z,101751.47
2023-05-18T09:23:56.820Z,101742.53
2023-05-18T09:29:00.523Z,101735.28
2023-05-18T09:34:06.513Z,101737.06
2023-05-18T09:39:11.548Z,101735.91
2023-05-18T09:44:15.128Z,101730.56
2023-05-18T09:49:22.918Z,101731.19
2023-05-18T09:54:25.687Z,101734.41
2023-05-18T09:59:31.326Z,101736.69
2023-05-18T10:04:39.895Z,101739.88
2023-05-18T10:09:44.073Z,101742.28
2023-05-18T10:14:47.328Z,101716.34
2023-05-18T10:19:53.455Z,101731.50
2023-05-18T10:24:56.872Z,101727.81
2023-05-18T10:30:03.700Z,101720.56
2023-05-18T10:35:09.560Z,101720.56
2023-05-18T10:40:13.975Z,101727.47
2023-05-18T10:45:16.758Z,101708.97
2023-05-18T10:50:21.711Z,101710.28
2023-05-18T10:55:24.482Z,101714.47
2023-05-18T11:00:27.393Z,101720.19
2023-05-18T11:05:32.079Z,101712.81
2023-05-18T11:10:36.814Z,101705.16
2023-05-18T11:16:07.623Z,101701.63
2023-05-18T11:21:35.705Z,101694.84
2023-05-18T11:26:39.957Z,101689.59
2023-05-18T11:31:45.848Z,101659.53
2023-05-18T11:36:56.343Z,101656.44
2023-05-18T11:42:02.973Z,101668.13
2023-05-18T11:47:08.504Z,101657.13
2023-05-18T11:52:18.724Z,101660.84
2023-05-18T11:57:26.498Z,101638.69
2023-05-18T12:02:32.747Z,101631.78
2023-05-18T12:07:37.534Z,101619.22
2023-05-18T12:12:40.592Z,101607.09
2023-05-18T12:17:44.196Z,101605.41
2023-05-18T12:22:50.193Z,101590.19
2023-05-18T12:27:53.913Z,101580.97
2023-05-18T12:32:58.503Z,101578.66
2023-05-18T12:38:03.151Z,101581.53
2023-05-18T12:43:06.106Z,101570.56
2023-05-18T12:48:13.032Z,101568.66
2023-05-18T12:53:17.476Z,101574.88
2023-05-18T12:58:22.105Z,101560.03
2023-05-18T13:03:24.973Z,101562.16
2023-05-18T13:08:29.242Z,101554.28
2023-05-18T13:13:32.406Z,101554.03
2023-05-18T13:18:35.322Z,101544.78
2023-05-18T13:23:39.528Z,101541.09
2023-05-18T13:28:42.367Z,101551.31
2023-05-18T13:33:45.464Z,101543.25
2023-05-18T13:38:49.589Z,101537.84
2023-05-18T13:43:52.380Z,101525.00
2023-05-18T13:48:55.153Z,101523.88
2023-05-18T13:53:59.218Z,101519.44
2023-05-18T13:59:02.004Z,101513.72
2023-05-18T14:04:04.771Z,101503.44
2023-05-18T14:09:08.922Z,101500.44
2023-05-18T14:14:11.678Z,101488.94
2023-05-18T14:19:14.474Z,101472.75
2023-05-18T14:24:19.802Z,101481.81
2023-05-18T14:29:22.644Z,101482.25
2023-05-18T14:34:25.415Z,101476.69
2023-05-18T14:39:29.572Z,101475.91
2023-05-18T14:44:32.458Z,101474.94
2023-05-18T14:49:35.250Z,101482.13
2023-05-18T14:54:40.298Z,101476.75
2023-05-18T14:59:43.480Z,101465.94
2023-05-18T15:04:46.310Z,101465.34
2023-05-18T15:09:50.587Z,101451.19
2023-05-18T15:14:53.932Z,101466.88
2023-05-18T15:19:56.678Z,101466.31
2023-05-18T15:25:01.533Z,101456.88
2023-05-18T15:30:11.100Z,101454.31
2023-05-18T15:35:16.132Z,101453.97
2023-05-18T15:40:20.401Z,101443.81
2023-05-18T15:45:23.169Z,101448.31
2023-05-18T15:50:26.670Z,101447.75
2023-05-18T15:55:31.029Z,101443.28
2023-05-18T16:00:33.797Z,101435.94
2023-05-18T16:05:36.556Z,101441.47
2023-05-18T16:10:41.448Z,101438.66
2023-05-18T16:15:44.241Z,101435.50
2023-05-18T16:20:47.011Z,101441.38
2023-05-18T16:25:51.185Z,101435.22
2023-05-18T16:30:53.998Z,101433.44
2023-05-18T16:35:58.224Z,101430.50
2023-05-18T16:41:02.397Z,101430.34
2023-05-18T16:46:05.276Z,101429.56
2023-05-18T16:51:08.125Z,101436.25
2023-05-18T16:56:12.318Z,101436.63
2023-05-18T17:01:26.842Z,101446.22
2023-05-18T17:06:31.267Z,101445.09
2023-05-18T17:11:35.520Z,101436.84
2023-05-18T17:16:40.737Z,101433.19
2023-05-18T17:21:43.518Z,101437.44
2023-05-18T17:26:47.644Z,101434.69
2023-05-18T17:31:50.648Z,101434.88
2023-05-18T17:36:54.834Z,101437.03
2023-05-18T17:42:00.132Z,101437.00
2023-05-18T17:47:03.062Z,101432.38
2023-05-18T17:52:08.725Z,101437.28
2023-05-18T17:57:12.797Z,101445.38
2023-05-18T18:02:16.053Z,101443.56
2023-05-18T18:07:18.893Z,101429.91
2023-05-18T18:12:23.013Z,101429.78
2023-05-18T18:17:25.901Z,101427.25
2023-05-18T18:22:28.734Z,101436.81
2023-05-18T18:27:33.071Z,101439.47
2023-05-18T18:32:35.871Z,101441.78
2023-05-18T18:37:38.689Z,101449.66
2023-05-18T18:42:42.789Z,101453.28
2023-05-18T18:47:45.635Z,101452.84
2023-05-18T18:52:48.513Z,101466.88
2023-05-18T18:57:53.505Z,101466.44
2023-05-18T19:02:56.366Z,101478.75
2023-05-18T19:07:59.317Z,101478.19
2023-05-18T19:13:05.735Z,101483.50
2023-05-18T19:18:08.762Z,101492.38
2023-05-18T19:23:11.666Z,101497.22
2023-05-18T19:28:15.928Z,101504.69
2023-05-18T19:33:18.745Z,101503.66
2023-05-18T19:38:21.600Z,101507.97
2023-05-18T19:43:25.857Z,101508.72
2023-05-18T19:48:28.700Z,101511.38
2023-05-18T19:53:31.591Z,101511.81
2023-05-18T19:58:35.728Z,101519.81
2023-05-18T20:03:42.420Z,101530.16
2023-05-18T20:08:46.122Z,101531.38
2023-05-18T20:13:50.249Z,101532.66
2023-05-18T20:18:53.714Z,101535.69
2023-05-18T20:23:56.587Z,101538.19
2023-05-18T20:29:00.687Z,101538.34
2023-05-18T20:34:03.907Z,101538.72
2023-05-18T20:39:07.316Z,101550.13
2023-05-18T20:44:11.541Z,101546.66
2023-05-18T20:49:15.416Z,101551.53
2023-05-18T20:54:18.889Z,101556.84
2023-05-18T20:59:22.962Z,101547.50
2023-05-18T21:04:25.733Z,101549.00
2023-05-18T21:09:28.556Z,101557.34
2023-05-18T21:14:32.622Z,101562.06
2023-05-18T21:19:35.391Z,101563.88
2023-05-18T21:24:38.117Z,101556.69
2023-05-18T21:29:42.166Z,101564.53
2023-05-18T21:34:44.921Z,101553.63
2023-05-18T21:39:47.629Z,101557.88
2023-05-18T21:44:51.690Z,101556.06
2023-05-18T21:49:54.403Z,101567.47
2023-05-18T21:54:57.154Z,101566.63
2023-05-18T22:00:01.353Z,101563.91
2023-05-18T22:05:04.138Z,101570.22
2023-05-18T22:10:07.905Z,101563.38
2023-05-18T22:15:12.655Z,101564.44
2023-05-18T22:20:16.016Z,101563.59
2023-05-18T22:25:18.925Z,101556.19
2023-05-18T22:30:23.980Z,101562.56
2023-05-18T22:35:26.791Z,101560.75
2023-05-18T22:40:29.772Z,101559.41
2023-05-18T22:45:34.520Z,101547.13
2023-05-18T22:50:37.264Z,101542.97
2023-05-18T22:55:40.259Z,101554.34
2023-05-18T23:00:44.366Z,101551.88
2023-05-18T23:05:48.262Z,101555.91
2023-05-18T23:10:51.016Z,101560.97
2023-05-18T23:15:56.742Z,101563.34
2023-05-18T23:20:59.496Z,101554.44
2023-05-18T23:26:02.199Z,101562.81
2023-05-18T23:31:06.378Z,101559.72
2023-05-18T23:36:09.732Z,101564.78
2023-05-18T23:41:12.997Z,101557.78
2023-05-18T23:46:18.072Z,101558.03
2023-05-18T23:51:21.859Z,101556.84
2023-05-18T23:56:25.158Z,101562.06
